Time;durP1;ratioP1;P1;durP2;ratioP2;P2;SDS_P1;SDS_P2;PMS_P1;PMS_P2;Temp;Humidity;BMP_temperature;BMP_pressure;BME280_temperature;BME280_humidity;BME280_pressure;Samples;Min_cycle;Max_cycle;Signal;HPM_P1;HPM_P2
2022/03/15 00:01:08;;;;;;;53.10;37.47;;;;;;;6.84;92.45;102675.09;5034207;28;20459;-47
2022/03/15 00:03:36;;;;;;;49.53;39.20;;;;;;;6.81;92.75;102671.88;5034338;28;20456;-47
2022/03/15 00:06:04;;;;;;;48.00;39.60;;;;;;;6.79;92.95;102674.63;5034293;28;20436;-47
2022/03/15 00:08:33;;;;;;;50.53;39.10;;;;;;;6.74;92.18;102689.22;5033629;28;20491;-49
2022/03/15 00:11:05;;;;;;;52.50;39.20;;;;;;;6.66;93.07;102693.34;5033768;28;20478;-49
2022/03/15 00:13:36;;;;;;;56.27;38.03;;;;;;;6.62;91.97;102696.38;5034211;28;20542;-49
2022/03/15 00:16:10;;;;;;;57.00;40.07;;;;;;;6.58;92.30;102697.56;5034102;28;20439;-48
2022/03/15 00:18:38;;;;;;;49.33;38.40;;;;;;;6.53;91.86;102692.66;5033307;28;20487;-49
2022/03/15 00:21:10;;;;;;;42.63;36.27;;;;;;;6.51;92.05;102693.75;5033775;28;20436;-47
2022/03/15 00:23:39;;;;;;;51.60;37.30;;;;;;;6.47;92.34;102693.13;5033951;28;20573;-48
2022/03/15 00:26:07;;;;;;;48.97;38.50;;;;;;;6.45;91.55;102688.94;5034101;28;20791;-47
2022/03/15 00:28:35;;;;;;;60.00;37.10;;;;;;;6.41;91.65;102696.28;5033047;28;20472;-48
2022/03/15 00:31:05;;;;;;;40.13;35.77;;;;;;;6.37;91.57;102699.28;5032991;28;21003;-47
2022/03/15 00:33:33;;;;;;;41.20;35.50;;;;;;;6.35;91.90;102703.88;5033694;28;20460;-48
2022/03/15 00:36:01;;;;;;;55.97;37.23;;;;;;;6.32;92.06;102709.41;5033636;28;20443;-50
2022/03/15 00:38:29;;;;;;;48.53;35.90;;;;;;;6.29;92.00;102702.56;5033130;28;20602;-46
2022/03/15 00:40:56;;;;;;;45.90;34.17;;;;;;;6.27;92.01;102704.50;5033463;28;20456;-49
2022/03/15 00:43:24;;;;;;;41.83;32.60;;;;;;;6.23;92.45;102705.69;5033352;28;20470;-48
2022/03/15 00:45:52;;;;;;;41.63;34.50;;;;;;;6.19;92.14;102711.31;5033522;28;20996;-46
2022/03/15 00:48:22;;;;;;;53.83;37.43;;;;;;;6.15;92.56;102715.19;5032581;28;20455;-46
2022/03/15 00:50:49;;;;;;;42.07;32.40;;;;;;;6.12;91.69;102716.28;5033132;28;20471;-45
2022/03/15 00:53:17;;;;;;;33.43;29.90;;;;;;;6.06;93.44;102706.97;5033522;28;20963;-49
2022/03/15 00:55:45;;;;;;;38.63;32.43;;;;;;;6.04;92.64;102706.28;5033485;28;20428;-46
2022/03/15 00:58:13;;;;;;;37.83;33.53;;;;;;;6.02;93.02;102704.72;5032673;28;20516;-45
2022/03/15 01:00:44;;;;;;;44.27;33.80;;;;;;;5.98;92.67;102701.44;5033005;28;20429;-44
2022/03/15 01:03:12;;;;;;;36.43;32.40;;;;;;;5.96;93.23;102708.69;5033171;28;20456;-48
2022/03/15 01:05:41;;;;;;;37.60;32.03;;;;;;;5.96;92.78;102708.69;5033309;28;20432;-48
2022/03/15 01:08:09;;;;;;;47.10;34.57;;;;;;;5.99;92.97;102718.19;5032211;28;20511;-46
2022/03/15 01:10:37;;;;;;;53.63;36.00;;;;;;;5.91;93.97;102716.13;5032850;28;20479;-44
2022/03/15 01:13:04;;;;;;;39.10;33.33;;;;;;;5.92;93.40;102716.97;5032908;28;20476;-44
2022/03/15 01:15:41;;;;;;;45.67;34.93;;;;;;;5.93;92.71;102722.16;5032862;28;20523;-46
2022/03/15 01:18:09;;;;;;;49.80;36.30;;;;;;;5.94;92.42;102720.38;5032195;28;20438;-45
2022/03/15 01:20:40;;;;;;;40.60;31.83;;;;;;;5.92;92.06;102725.75;5032808;28;20428;-45
2022/03/15 01:23:09;;;;;;;49.23;33.97;;;;;;;5.96;92.05;102721.06;5032873;28;20449;-45
2022/03/15 01:25:37;;;;;;;38.33;33.07;;;;;;;5.94;92.04;102723.81;5032861;28;20867;-44
2022/03/15 01:28:05;;;;;;;69.17;38.80;;;;;;;5.94;92.00;102723.00;5031852;28;20985;-47
2022/03/15 01:30:33;;;;;;;47.57;35.87;;;;;;;5.96;91.90;102719.28;5032536;28;21114;-44
2022/03/15 01:33:01;;;;;;;47.60;34.97;;;;;;;5.96;91.94;102721.06;5032747;28;20452;-43
2022/03/15 01:35:28;;;;;;;74.80;38.87;;;;;;;5.94;92.16;102715.06;5032633;28;20852;-43
2022/03/15 01:37:56;;;;;;;37.77;31.63;;;;;;;5.94;92.63;102720.38;5031294;28;20535;-45
2022/03/15 01:40:25;;;;;;;48.07;33.03;;;;;;;5.91;91.86;102712.66;5032169;28;20939;-43
2022/03/15 01:42:53;;;;;;;38.83;32.80;;;;;;;5.86;92.12;102713.00;5031361;28;20496;-46
2022/03/15 01:45:21;;;;;;;35.53;31.90;;;;;;;5.88;91.69;102712.88;5032385;28;20439;-44
2022/03/15 01:47:48;;;;;;;53.33;33.90;;;;;;;5.87;91.79;102712.03;5032326;28;20519;-46
2022/03/15 01:50:17;;;;;;;38.10;34.10;;;;;;;5.83;91.80;102710.53;5031369;28;20531;-44
2022/03/15 01:52:45;;;;;;;49.07;32.47;;;;;;;5.81;91.26;102716.94;5032151;28;20448;-45
2022/03/15 01:55:13;;;;;;;41.37;33.00;;;;;;;5.78;90.83;102718.00;5031914;28;20442;-44
2022/03/15 01:57:42;;;;;;;47.77;34.70;;;;;;;5.75;91.11;102712.09;5032054;28;20432;-46
2022/03/15 02:00:11;;;;;;;35.70;31.37;;;;;;;5.75;90.95;102714.75;5031477;28;20471;-43
2022/03/15 02:02:39;;;;;;;40.23;31.23;;;;;;;5.74;91.31;102713.03;5032097;28;20464;-45
2022/03/15 02:05:08;;;;;;;38.47;30.90;;;;;;;5.76;91.03;102719.09;5032095;28;20446;-44
2022/03/15 02:07:36;;;;;;;34.13;30.60;;;;;;;5.77;90.19;102713.66;5031895;28;20528;-44
2022/03/15 02:10:05;;;;;;;36.33;30.47;;;;;;;5.76;90.95;102717.28;5031700;28;20983;-45
2022/03/15 02:12:37;;;;;;;35.90;31.27;;;;;;;5.78;90.67;102699.47;5031481;28;20563;-44
2022/03/15 02:15:08;;;;;;;34.40;30.80;;;;;;;5.75;90.83;102709.44;5032109;28;20436;-44
2022/03/15 02:17:36;;;;;;;37.17;30.53;;;;;;;5.75;91.14;102702.34;5032348;28;20814;-41
2022/03/15 02:20:07;;;;;;;37.33;30.70;;;;;;;5.74;90.78;102708.59;5031176;28;20468;-46
2022/03/15 02:22:35;;;;;;;41.47;32.10;;;;;;;5.77;89.56;102708.38;5031897;28;20471;-45
2022/03/15 02:25:03;;;;;;;50.63;33.20;;;;;;;5.79;89.80;102709.13;5031736;28;21066;-44
2022/03/15 02:27:31;;;;;;;54.67;34.17;;;;;;;5.81;89.89;102709.84;5031734;28;20424;-44
2022/03/15 02:29:59;;;;;;;35.90;30.57;;;;;;;5.83;90.39;102704.41;5031255;28;20466;-44
2022/03/15 02:32:27;;;;;;;40.33;32.70;;;;;;;5.81;90.78;102703.69;5031298;28;20562;-46
2022/03/15 02:34:55;;;;;;;45.40;34.40;;;;;;;5.85;90.41;102713.09;5031648;28;20526;-44
2022/03/15 02:37:24;;;;;;;38.63;31.53;;;;;;;5.84;90.62;102709.59;5031804;28;20435;-47
2022/03/15 02:39:52;;;;;;;46.27;33.43;;;;;;;5.83;90.77;102705.25;5031474;28;20549;-44
2022/03/15 02:42:20;;;;;;;43.07;30.57;;;;;;;5.84;90.71;102711.41;5031211;28;20523;-44
2022/03/15 02:44:48;;;;;;;41.10;31.80;;;;;;;5.84;90.81;102700.81;4931910;28;20451;-44
2022/03/15 02:47:16;;;;;;;56.47;35.33;;;;;;;5.82;91.00;102711.53;4972811;28;21017;-45
2022/03/15 02:49:44;;;;;;;49.60;33.83;;;;;;;5.81;89.97;102709.84;4931281;28;20611;-46
2022/03/15 02:52:12;;;;;;;41.13;31.10;;;;;;;5.78;90.26;102704.78;4931430;29;20851;-45
2022/03/15 02:54:41;;;;;;;37.07;30.13;;;;;;;5.71;89.44;102700.91;4934538;29;20563;-45
2022/03/15 02:57:10;;;;;;;32.43;28.90;;;;;;;5.72;89.67;102705.25;4934800;29;20965;-46
2022/03/15 02:59:39;;;;;;;37.90;30.23;;;;;;;5.72;89.56;102707.03;4934652;28;20548;-44
2022/03/15 03:02:08;;;;;;;39.80;31.60;;;;;;;5.73;88.96;102706.09;4934823;29;20864;-46
2022/03/15 03:04:36;;;;;;;31.50;28.70;;;;;;;5.76;88.80;102708.50;4934869;29;20457;-44
2022/03/15 03:07:06;;;;;;;54.27;33.13;;;;;;;5.76;88.91;102709.34;4934931;29;20868;-44
2022/03/15 03:09:34;;;;;;;36.20;32.57;;;;;;;5.76;89.30;102708.50;4934508;28;20475;-43
2022/03/15 03:12:03;;;;;;;32.77;29.63;;;;;;;5.76;89.94;102712.00;4934479;28;20567;-44
2022/03/15 03:14:31;;;;;;;44.83;31.00;;;;;;;5.79;89.04;102710.91;4934573;28;20548;-46
2022/03/15 03:16:58;;;;;;;34.30;30.00;;;;;;;5.77;89.89;102718.09;4934818;29;20520;-44
2022/03/15 03:19:26;;;;;;;34.93;31.20;;;;;;;5.75;89.33;102723.53;4934409;28;20478;-46
2022/03/15 03:21:55;;;;;;;39.20;30.60;;;;;;;5.76;89.36;102713.78;4934434;28;20437;-44
2022/03/15 03:24:24;;;;;;;34.70;29.57;;;;;;;5.78;88.56;102722.44;4934384;29;21029;-44
2022/03/15 03:26:51;;;;;;;39.33;31.70;;;;;;;5.79;89.19;102718.84;4934407;29;20440;-44
2022/03/15 03:29:21;;;;;;;41.87;31.50;;;;;;;5.80;89.40;102734.59;4934103;28;20495;-44
2022/03/15 03:31:49;;;;;;;47.23;32.67;;;;;;;5.80;88.86;102725.81;4934278;29;20488;-43
2022/03/15 03:34:17;;;;;;;39.80;31.83;;;;;;;5.80;89.92;102734.59;4934537;28;20460;-43
2022/03/15 03:36:45;;;;;;;35.60;31.60;;;;;;;5.82;89.32;102727.41;4934361;29;20498;-46
2022/03/15 03:39:32;;;;;;;43.43;33.90;;;;;;;5.80;89.29;102725.81;4933949;28;20464;-47
2022/03/15 03:42:01;;;;;;;71.30;34.50;;;;;;;5.80;89.96;102729.31;4934220;29;20433;-45
2022/03/15 03:44:31;;;;;;;38.53;30.83;;;;;;;5.76;90.57;102727.88;5023052;28;20997;-45
2022/03/15 03:46:58;;;;;;;35.07;29.37;;;;;;;5.74;90.17;102734.22;5034494;28;20434;-45
2022/03/15 03:49:26;;;;;;;44.50;31.47;;;;;;;5.74;89.70;102735.06;5034053;28;20888;-44
2022/03/15 03:51:54;;;;;;;33.80;30.13;;;;;;;5.75;89.47;102730.63;5034275;28;20475;-47
2022/03/15 03:54:23;;;;;;;87.97;36.20;;;;;;;5.71;89.98;102731.81;5034527;28;20487;-46
2022/03/15 03:56:51;;;;;;;34.33;30.60;;;;;;;5.70;90.41;102732.78;5034577;28;20520;-44
2022/03/15 03:59:18;;;;;;;43.30;32.70;;;;;;;5.71;90.02;102737.09;5033968;28;20460;-46
2022/03/15 04:01:47;;;;;;;45.77;31.40;;;;;;;5.69;89.94;102739.03;5034139;28;20451;-44
2022/03/15 04:04:15;;;;;;;38.30;31.30;;;;;;;5.71;89.96;102742.41;5033920;28;20464;-44
2022/03/15 04:06:44;;;;;;;42.43;31.23;;;;;;;5.67;89.43;102741.81;5025483;28;20525;-44
2022/03/15 04:09:12;;;;;;;55.13;33.27;;;;;;;5.68;89.55;102740.00;5024127;28;20463;-45
2022/03/15 04:11:41;;;;;;;41.77;31.90;;;;;;;5.67;89.34;102744.47;5029092;28;20471;-44
2022/03/15 04:14:11;;;;;;;44.90;31.37;;;;;;;5.67;89.03;102746.25;5033947;28;20995;-43
2022/03/15 04:16:39;;;;;;;54.20;32.20;;;;;;;5.66;89.40;102745.41;5034124;28;20523;-44
2022/03/15 04:19:09;;;;;;;34.67;29.83;;;;;;;5.67;89.09;102741.81;5033475;28;20487;-44
2022/03/15 04:21:37;;;;;;;43.43;32.33;;;;;;;5.65;90.04;102738.41;5033937;28;20883;-44
2022/03/15 04:24:05;;;;;;;36.47;32.30;;;;;;;5.64;89.82;102733.25;5034008;28;20546;-46
2022/03/15 04:26:33;;;;;;;33.87;30.27;;;;;;;5.65;89.35;102733.13;5033793;28;20432;-46
2022/03/15 04:29:00;;;;;;;43.27;29.50;;;;;;;5.59;89.95;102734.44;5033394;28;20945;-44
2022/03/15 04:31:28;;;;;;;49.50;31.30;;;;;;;5.58;89.03;102732.75;5033440;28;20516;-45
2022/03/15 04:33:55;;;;;;;39.60;30.67;;;;;;;5.60;88.72;102724.69;5033742;28;20846;-46
2022/03/15 04:36:24;;;;;;;51.63;33.87;;;;;;;5.63;88.77;102734.22;5034029;28;20432;-46
2022/03/15 04:38:52;;;;;;;43.53;33.17;;;;;;;5.61;88.10;102736.97;5033288;28;20464;-43
2022/03/15 04:41:20;;;;;;;46.33;34.30;;;;;;;5.61;88.48;102736.13;5033425;28;20957;-44
2022/03/15 04:43:48;;;;;;;74.00;37.40;;;;;;;5.62;88.60;102740.44;5033197;28;20506;-44
2022/03/15 04:46:15;;;;;;;53.90;34.53;;;;;;;5.60;89.22;102740.56;5033970;28;20471;-46
2022/03/15 04:48:43;;;;;;;48.53;32.63;;;;;;;5.56;89.97;102739.97;5033092;28;20464;-47
2022/03/15 04:51:11;;;;;;;48.37;33.13;;;;;;;5.53;90.36;102748.13;5033170;28;20519;-49
2022/03/15 04:53:44;;;;;;;38.97;30.23;;;;;;;5.54;89.71;102751.63;5032934;28;20486;-47
2022/03/15 04:56:12;;;;;;;45.03;30.47;;;;;;;5.51;90.60;102746.56;5033329;28;20440;-47
2022/03/15 04:58:40;;;;;;;59.20;31.10;;;;;;;5.45;90.54;102747.03;5032878;28;20547;-46
2022/03/15 05:01:07;;;;;;;49.67;29.07;;;;;;;5.41;90.67;102738.47;5033180;28;20443;-44
2022/03/15 05:03:35;;;;;;;57.40;29.07;;;;;;;5.40;90.04;102743.88;5033201;28;20801;-45
2022/03/15 05:06:03;;;;;;;44.70;29.57;;;;;;;5.35;90.58;102746.84;5033105;28;20444;-46
2022/03/15 05:08:31;;;;;;;53.37;30.37;;;;;;;5.32;90.24;102755.03;5032546;28;20633;-46
2022/03/15 05:11:09;;;;;;;59.30;32.10;;;;;;;5.31;89.92;102757.78;5032734;28;20439;-47
2022/03/15 05:13:39;;;;;;;57.47;30.10;;;;;;;5.29;89.69;102752.59;5033011;28;20909;-45
2022/03/15 05:16:09;;;;;;;31.40;28.00;;;;;;;5.32;89.09;102764.75;5033065;28;21063;-46
2022/03/15 05:18:39;;;;;;;35.63;28.43;;;;;;;5.29;89.71;102767.63;5032480;28;20688;-49
2022/03/15 05:21:07;;;;;;;39.70;28.37;;;;;;;5.27;89.46;102765.09;5032565;28;20428;-48
2022/03/15 05:23:35;;;;;;;44.87;29.47;;;;;;;5.23;90.34;102754.84;5032633;28;20539;-46
2022/03/15 05:26:04;;;;;;;40.40;28.57;;;;;;;5.21;89.33;102752.34;5032725;28;20467;-48
2022/03/15 05:28:32;;;;;;;34.60;29.03;;;;;;;5.18;89.53;102757.00;5032374;28;20862;-49
2022/03/15 05:30:59;;;;;;;32.60;26.73;;;;;;;5.19;89.50;102758.69;5032380;28;20432;-46
2022/03/15 05:33:28;;;;;;;34.97;27.47;;;;;;;5.18;89.04;102763.13;5032411;28;20726;-48
2022/03/15 05:35:56;;;;;;;61.33;30.73;;;;;;;5.13;88.90;102752.06;5032416;28;20977;-48
2022/03/15 05:38:24;;;;;;;37.13;29.10;;;;;;;5.16;88.88;102764.22;5032132;28;20590;-47
2022/03/15 05:40:52;;;;;;;43.53;30.40;;;;;;;5.15;88.67;102760.72;5032169;28;21018;-48
2022/03/15 05:43:22;;;;;;;39.17;29.13;;;;;;;5.16;88.27;102764.22;5032130;28;21058;-49
2022/03/15 05:45:50;;;;;;;35.57;30.10;;;;;;;5.19;88.14;102756.06;5032463;28;20432;-49
2022/03/15 05:48:19;;;;;;;40.77;29.07;;;;;;;5.18;88.48;102757.00;5031760;28;20525;-46
2022/03/15 05:50:47;;;;;;;57.07;33.97;;;;;;;5.16;88.62;102761.56;5032202;28;20893;-48
2022/03/15 05:53:15;;;;;;;36.87;30.27;;;;;;;5.15;88.25;102746.66;5032076;28;20538;-46
2022/03/15 05:55:42;;;;;;;62.90;34.83;;;;;;;5.19;87.89;102758.69;5032104;28;20432;-44
2022/03/15 05:58:10;;;;;;;50.83;30.30;;;;;;;5.23;87.18;102758.34;5031692;28;20530;-46
2022/03/15 06:00:40;;;;;;;83.17;34.43;;;;;;;5.24;87.91;102753.91;5031903;28;20446;-48
2022/03/15 06:03:08;;;;;;;65.93;30.73;;;;;;;5.25;87.94;102758.25;5031838;28;20444;-50
2022/03/15 06:05:37;;;;;;;44.83;28.40;;;;;;;5.30;87.67;102753.44;5032149;28;20428;-48
2022/03/15 06:08:06;;;;;;;80.57;30.57;;;;;;;5.30;88.15;102754.31;5031643;28;20432;-46
2022/03/15 06:10:33;;;;;;;85.23;34.13;;;;;;;5.24;89.77;102754.75;5031714;28;20432;-46
2022/03/15 06:13:01;;;;;;;40.27;28.03;;;;;;;5.27;89.57;102754.53;5031771;28;20559;-46
2022/03/15 06:15:28;;;;;;;44.77;30.53;;;;;;;5.29;89.22;102757.03;5031816;28;20483;-49
2022/03/15 06:18:00;;;;;;;37.73;31.10;;;;;;;5.26;89.15;102758.13;5031253;28;20434;-47
2022/03/15 06:20:28;;;;;;;40.60;30.27;;;;;;;5.29;89.29;102759.69;5031578;28;20438;-45
2022/03/15 06:22:56;;;;;;;65.97;32.33;;;;;;;5.34;88.37;102761.06;5031792;28;20514;-48
2022/03/15 06:25:25;;;;;;;58.17;31.47;;;;;;;5.35;88.69;102759.25;5031878;28;20571;-44
2022/03/15 06:27:53;;;;;;;43.97;29.93;;;;;;;5.38;88.90;102746.63;5031437;28;20447;-43
2022/03/15 06:30:21;;;;;;;38.23;26.27;;;;;;;5.41;89.08;102745.56;5050923;28;20872;-43
2022/03/15 06:32:49;;;;;;;27.97;24.97;;;;;;;5.43;89.43;102747.16;5051419;28;20453;-44
2022/03/15 06:35:19;;;;;;;42.93;30.47;;;;;;;5.50;88.66;102752.81;5051651;28;20471;-43
2022/03/15 06:37:49;;;;;;;121.87;37.87;;;;;;;5.54;88.89;102752.47;5051837;28;20419;-47
2022/03/15 06:40:24;;;;;;;36.93;28.17;;;;;;;5.54;90.52;102759.56;5050782;28;21001;-46
2022/03/15 06:42:52;;;;;;;72.87;32.00;;;;;;;5.63;89.35;102765.97;5051559;28;20516;-43
2022/03/15 06:45:21;;;;;;;59.03;31.80;;;;;;;5.66;89.94;102761.28;5051404;28;20518;-44
2022/03/15 06:47:49;;;;;;;51.87;30.73;;;;;;;5.72;89.37;102760.81;5051496;28;20427;-43
2022/03/15 06:50:18;;;;;;;44.23;30.23;;;;;;;5.78;89.72;102763.00;5050684;28;20466;-44
2022/03/15 06:52:47;;;;;;;42.80;30.90;;;;;;;5.84;89.28;102754.59;5051265;28;21013;-47
2022/03/15 06:55:15;;;;;;;75.87;36.37;;;;;;;5.89;90.09;102757.78;5051216;28;20475;-43
2022/03/15 06:57:43;;;;;;;47.23;32.17;;;;;;;5.92;91.05;102754.03;5051314;28;20489;-44
2022/03/15 07:00:13;;;;;;;46.83;31.97;;;;;;;5.98;90.14;102757.06;5050712;28;20546;-46
2022/03/15 07:02:41;;;;;;;69.57;34.00;;;;;;;6.01;90.83;102759.47;5051342;28;20539;-44
2022/03/15 07:05:09;;;;;;;81.47;37.30;;;;;;;6.06;92.06;102759.97;5051276;28;20435;-45
2022/03/15 07:07:39;;;;;;;55.03;34.00;;;;;;;6.09;92.23;102757.06;5051130;28;20427;-43
2022/03/15 07:10:09;;;;;;;57.47;33.17;;;;;;;6.05;93.24;102758.28;5050683;28;20589;-49
2022/03/15 07:12:38;;;;;;;42.27;32.10;;;;;;;6.15;92.10;102763.72;5051177;28;20510;-46
2022/03/15 07:15:06;;;;;;;75.43;34.13;;;;;;;6.12;93.91;102764.78;5051022;28;20992;-44
2022/03/15 07:17:34;;;;;;;38.03;32.10;;;;;;;6.20;93.20;102760.72;5051138;28;20930;-43
2022/03/15 07:20:02;;;;;;;54.97;32.00;;;;;;;6.24;93.94;102755.06;5050572;28;20902;-45
2022/03/15 07:22:30;;;;;;;40.03;33.00;;;;;;;6.31;93.55;102748.31;5050786;28;20437;-48
2022/03/15 07:24:59;;;;;;;53.57;34.00;;;;;;;6.29;94.67;102757.34;5051048;28;21050;-45
2022/03/15 07:27:26;;;;;;;40.87;32.83;;;;;;;6.35;94.87;102756.88;5051248;28;20427;-46
2022/03/15 07:29:54;;;;;;;52.80;34.47;;;;;;;6.38;95.38;102753.97;5050524;28;20538;-43
2022/03/15 07:32:21;;;;;;;34.10;30.90;;;;;;;6.43;95.66;102749.16;5050783;28;20529;-45
2022/03/15 07:34:49;;;;;;;39.93;32.37;;;;;;;6.40;96.85;102758.19;5050833;28;20474;-44
2022/03/15 07:37:17;;;;;;;39.27;30.50;;;;;;;6.39;97.27;102758.31;5051167;28;20489;-43
2022/03/15 07:39:45;;;;;;;36.10;29.50;;;;;;;6.42;97.63;102766.84;5050538;28;20542;-45
2022/03/15 07:42:14;;;;;;;40.30;28.53;;;;;;;6.46;96.97;102760.34;5054515;28;20522;-43
2022/03/15 07:44:42;;;;;;;33.50;29.63;;;;;;;6.53;97.25;102764.22;5054386;28;20553;-45
2022/03/15 07:47:10;;;;;;;32.13;28.50;;;;;;;6.60;97.46;102768.06;5054423;28;20517;-46
2022/03/15 07:49:38;;;;;;;52.53;33.50;;;;;;;6.57;98.69;102770.94;5053933;28;20808;-44
2022/03/15 07:52:06;;;;;;;46.30;31.37;;;;;;;6.59;99.71;102781.44;5054367;28;20523;-43
2022/03/15 07:54:34;;;;;;;35.17;31.07;;;;;;;6.65;99.53;102783.59;5054296;28;20474;-46
2022/03/15 07:57:02;;;;;;;47.33;33.00;;;;;;;6.66;99.32;102790.56;5054372;28;20809;-45
2022/03/15 07:59:31;;;;;;;42.47;31.90;;;;;;;6.75;99.06;102781.06;5053766;28;21072;-43
2022/03/15 08:01:59;;;;;;;50.60;33.57;;;;;;;6.79;99.68;102786.00;5053893;28;20434;-43
2022/03/15 08:04:26;;;;;;;45.03;31.57;;;;;;;6.81;99.59;102788.53;5054109;28;20455;-43
2022/03/15 08:06:54;;;;;;;59.13;34.10;;;;;;;6.82;100.00;102783.09;5054129;28;20512;-45
2022/03/15 08:09:22;;;;;;;32.50;29.40;;;;;;;6.77;99.84;102782.63;5053671;28;20970;-42
2022/03/15 08:11:50;;;;;;;34.33;30.90;;;;;;;6.71;99.73;102787.56;5053843;28;20428;-43
2022/03/15 08:14:18;;;;;;;35.53;31.87;;;;;;;6.72;99.98;102784.78;5053807;28;20486;-43
2022/03/15 08:16:47;;;;;;;37.80;32.17;;;;;;;6.81;99.70;102788.53;5054234;28;20436;-43
2022/03/15 08:19:15;;;;;;;35.73;32.43;;;;;;;6.86;99.86;102786.34;5053341;28;20459;-43
2022/03/15 08:21:42;;;;;;;38.40;33.80;;;;;;;6.97;99.85;102786.34;5053767;28;20470;-45
2022/03/15 08:24:11;;;;;;;40.13;34.07;;;;;;;7.06;99.51;102777.63;5053819;28;20460;-43
2022/03/15 08:26:39;;;;;;;36.17;32.90;;;;;;;7.14;99.31;102780.50;5053622;28;20941;-44
2022/03/15 08:29:06;;;;;;;45.23;37.13;;;;;;;7.18;99.24;102780.13;5053397;28;20658;-43
2022/03/15 08:31:34;;;;;;;38.63;34.93;;;;;;;7.31;99.80;102784.44;5053615;28;20436;-44
2022/03/15 08:34:03;;;;;;;62.87;39.00;;;;;;;7.42;99.23;102781.75;5053521;28;20459;-44
2022/03/15 08:36:31;;;;;;;38.53;34.80;;;;;;;7.53;99.84;102781.69;5053509;28;20438;-44
2022/03/15 08:38:58;;;;;;;35.70;32.67;;;;;;;7.54;99.12;102778.91;5053095;28;20486;-43
2022/03/15 08:41:26;;;;;;;33.87;31.10;;;;;;;7.58;98.72;102774.22;5053241;28;20432;-44
2022/03/15 08:43:54;;;;;;;37.47;33.60;;;;;;;7.57;98.29;102773.34;5053514;28;20478;-43
2022/03/15 08:46:21;;;;;;;35.63;32.60;;;;;;;7.60;98.36;102774.91;5053284;28;21008;-43
2022/03/15 08:48:49;;;;;;;36.37;32.67;;;;;;;7.60;97.52;102773.09;5052846;28;20545;-43
2022/03/15 08:51:18;;;;;;;34.47;31.37;;;;;;;7.70;98.05;102774.03;5052863;28;20431;-43
2022/03/15 08:53:46;;;;;;;36.30;33.20;;;;;;;7.73;97.64;102773.78;5053026;28;20538;-42
2022/03/15 08:56:14;;;;;;;37.17;33.60;;;;;;;7.86;98.69;102770.91;5053334;28;20569;-43
2022/03/15 08:58:42;;;;;;;38.83;35.40;;;;;;;7.86;97.62;102767.41;5052616;28;20466;-43
2022/03/15 09:01:09;;;;;;;40.57;36.70;;;;;;;7.91;97.80;102765.22;5052974;28;20526;-45
2022/03/15 09:03:57;;;;;;;38.13;34.40;;;;;;;7.94;97.67;102771.13;5053148;28;20451;-43
2022/03/15 09:06:27;;;;;;;36.87;33.30;;;;;;;7.92;96.51;102769.53;5052913;28;20431;-42
2022/03/15 09:08:54;;;;;;;36.67;33.60;;;;;;;8.01;97.22;102766.94;5052574;28;20463;-43
2022/03/15 09:11:22;;;;;;;40.40;36.57;;;;;;;8.00;96.61;102759.97;5052907;28;20522;-43
2022/03/15 09:13:50;;;;;;;42.00;37.63;;;;;;;8.05;97.18;102760.41;5052727;28;20545;-44
2022/03/15 09:16:17;;;;;;;40.10;36.50;;;;;;;8.17;97.32;102750.53;5052759;28;20481;-43
2022/03/15 09:18:45;;;;;;;39.20;35.90;;;;;;;8.21;97.08;102762.59;5052200;28;20463;-42
2022/03/15 09:21:13;;;;;;;43.03;39.10;;;;;;;8.25;97.18;102758.69;5052522;28;20518;-43
2022/03/15 09:23:42;;;;;;;41.53;37.83;;;;;;;8.39;96.96;102754.88;5052595;28;21045;-43
2022/03/15 09:26:10;;;;;;;41.93;38.13;;;;;;;8.44;96.60;102747.34;5052576;28;20423;-45
2022/03/15 09:28:38;;;;;;;45.80;41.40;;;;;;;8.55;97.00;102748.06;5052301;28;20562;-43
2022/03/15 09:31:07;;;;;;;55.63;49.13;;;;;;;8.68;96.60;102751.34;5052368;28;20522;-43
2022/03/15 09:33:35;;;;;;;53.70;46.70;;;;;;;8.82;96.75;102742.13;5052359;28;21098;-43
2022/03/15 09:36:04;;;;;;;45.70;41.40;;;;;;;9.04;96.19;102739.25;5052529;28;20482;-45
2022/03/15 09:38:32;;;;;;;43.67;39.17;;;;;;;9.14;94.35;102741.94;5051906;28;20534;-43
2022/03/15 09:41:04;;;;;;;50.57;43.20;;;;;;;9.21;92.95;102738.56;5052101;28;20485;-43
2022/03/15 09:43:36;;;;;;;47.07;42.30;;;;;;;9.29;92.91;102736.03;5052068;28;21005;-44
2022/03/15 09:46:06;;;;;;;50.63;43.23;;;;;;;9.40;93.25;102733.25;5052277;28;20511;-44
2022/03/15 09:48:55;;;;;;;42.53;38.30;;;;;;;9.44;92.83;102734.63;5051751;28;20455;-44
2022/03/15 09:51:23;;;;;;;43.60;38.87;;;;;;;9.44;92.29;102736.44;5052003;28;20427;-43
2022/03/15 09:53:52;;;;;;;47.00;41.07;;;;;;;9.62;93.18;102732.09;5052054;28;20807;-45
2022/03/15 09:56:21;;;;;;;41.70;37.40;;;;;;;9.70;92.00;102729.56;5051949;28;20485;-44
2022/03/15 09:58:48;;;;;;;41.93;37.80;;;;;;;9.80;90.76;102740.19;5051754;28;20471;-45
2022/03/15 10:01:18;;;;;;;43.17;38.97;;;;;;;9.86;89.29;102734.28;5051748;28;21001;-45
2022/03/15 10:03:47;;;;;;;42.93;39.03;;;;;;;9.83;88.39;102729.25;5051437;28;20505;-44
2022/03/15 10:06:15;;;;;;;41.50;37.77;;;;;;;9.86;88.78;102729.81;5052064;28;20949;-43
2022/03/15 10:08:44;;;;;;;43.30;38.80;;;;;;;9.87;88.67;102734.16;5051318;28;20469;-45
2022/03/15 10:11:12;;;;;;;49.17;42.83;;;;;;;9.82;87.74;102727.59;5051890;28;20518;-47
2022/03/15 10:13:43;;;;;;;44.87;40.80;;;;;;;9.99;89.75;102719.69;5051977;28;20456;-48
2022/03/15 10:16:14;;;;;;;41.93;38.20;;;;;;;10.13;89.25;102715.72;5051739;28;20479;-45
2022/03/15 10:18:52;;;;;;;42.67;38.20;;;;;;;10.19;87.66;102715.16;5051319;28;20467;-45
2022/03/15 10:21:24;;;;;;;43.90;39.30;;;;;;;10.30;87.79;102711.47;5051405;28;20509;-47
2022/03/15 10:23:54;;;;;;;42.10;38.37;;;;;;;10.41;86.73;102705.94;5051904;28;20898;-47
2022/03/15 10:26:24;;;;;;;44.00;36.83;;;;;;;10.34;85.06;102703.03;5051839;28;20526;-46
2022/03/15 10:28:54;;;;;;;41.57;37.43;;;;;;;10.57;86.38;102697.31;5051311;28;20554;-45
2022/03/15 10:31:23;;;;;;;39.77;36.13;;;;;;;10.60;84.81;102700.53;5051326;28;20457;-45
2022/03/15 10:33:53;;;;;;;42.87;38.80;;;;;;;10.70;84.91;102701.28;5051468;28;20527;-43
2022/03/15 10:36:22;;;;;;;42.13;37.93;;;;;;;10.83;85.22;102696.44;5051391;28;20467;-43
2022/03/15 10:38:52;;;;;;;44.70;40.40;;;;;;;10.74;82.61;102693.81;5051178;28;20601;-47
2022/03/15 10:41:20;;;;;;;42.60;38.90;;;;;;;10.90;84.16;102702.81;5051399;28;20445;-45
2022/03/15 10:43:51;;;;;;;43.47;39.23;;;;;;;10.94;83.51;102687.34;5051357;28;20473;-47
2022/03/15 10:46:24;;;;;;;42.97;38.60;;;;;;;11.12;83.99;102677.53;5043627;28;20515;-43
2022/03/15 10:49:00;;;;;;;45.80;40.80;;;;;;;11.03;80.96;102679.28;5051315;28;20459;-45
2022/03/15 10:51:27;;;;;;;40.83;37.20;;;;;;;11.39;83.64;102679.25;5051337;28;20481;-44
2022/03/15 10:54:02;;;;;;;41.40;37.70;;;;;;;11.47;81.36;102669.47;5051350;28;20530;-46
2022/03/15 10:56:30;;;;;;;40.37;36.73;;;;;;;11.51;80.42;102664.66;5051354;28;21024;-44
2022/03/15 10:59:01;;;;;;;46.53;41.60;;;;;;;11.48;79.41;102660.47;5050770;28;20904;-46
2022/03/15 11:01:37;;;;;;;51.83;40.47;;;;;;;11.46;79.67;102667.81;5051308;28;20510;-47
2022/03/15 11:04:07;;;;;;;45.50;38.87;;;;;;;11.51;80.32;102664.66;5051193;28;20508;-45
2022/03/15 11:06:38;;;;;;;45.47;41.37;;;;;;;11.60;79.73;102664.56;5051348;28;20427;-43
2022/03/15 11:09:20;;;;;;;42.00;37.80;;;;;;;11.88;80.96;102659.09;5050790;28;20459;-45
2022/03/15 11:11:52;;;;;;;41.73;38.20;;;;;;;12.19;79.90;102668.25;5051211;28;20427;-45
2022/03/15 11:14:36;;;;;;;42.53;37.80;;;;;;;12.25;77.68;102656.91;5052279;28;20459;-43
2022/03/15 11:17:09;;;;;;;40.03;36.33;;;;;;;12.34;77.34;102655.94;5055046;28;20470;-44
2022/03/15 11:19:41;;;;;;;37.63;34.57;;;;;;;12.37;76.46;102660.97;5054518;28;20458;-44
2022/03/15 11:22:09;;;;;;;41.20;36.73;;;;;;;12.65;77.11;102654.38;5054683;28;21006;-43
2022/03/15 11:24:42;;;;;;;38.47;35.27;;;;;;;12.90;75.58;102655.28;5054871;28;20533;-44